Main page
METAR-TAF:

METAR-TAF

Airports :

Marabá Airport

Marabá, Pará, Brazil

latitude: 05-21S, longitude: 049-09W, elevation: 95 m

Current weather observation

The report was made 45 minutes ago, at 07:00 UTC
Wind 2 kt from the West/Northwest
Temperature 25°C
Humidity 100%
Pressure 1009 hPa
Visibility 10 km or more
no clouds below 1500 m and no cumulonimbus

METAR: SBMA 160700Z 29002KT CAVOK 25/25 Q1009

Time: 04:45 (07:45 UTC)

Forecast

The report was made 4 hours and 45 minutes ago, at 03:00 UTC
Forecast valid from 16 at 06 UTC to 16 at 18 UTC
Wind 5 kt from the Northwest
Visibility 10 km or more
Scattered clouds at a height of 2000 ft

TAF: SBMA 160300Z 1606/1618 32005KT 9999 SCT020 TN24/1607Z TX32/1617Z RMK PHD

Weather observations and forecasts of more than 4000 airports (METAR and TAF reports).

The available stations are represented by yellow and red dots on the map.

Hover mouse over dot to see the name of the station.

Then click to see weather observations and forecasts.

To change the map : click on the green buttons with a black cross to zoom in, on the green button with a dash to zoom out, or on the green arrows for adjacent maps.


METAR-TAF: